createdAt,value
2019-05-01T00:00:36.499Z,26.70
2019-05-01T00:03:24.083Z,25.17
2019-05-01T00:05:57.009Z,27.33
2019-05-01T00:08:27.249Z,25.47
2019-05-01T00:10:57.559Z,24.30
2019-05-01T00:13:28.044Z,25.12
2019-05-01T00:15:58.599Z,23.90
2019-05-01T00:18:28.298Z,33.13
2019-05-01T00:20:58.229Z,24.73
2019-05-01T00:23:28.531Z,26.57
2019-05-01T00:25:58.853Z,26.67
2019-05-01T00:28:28.548Z,27.33
2019-05-01T00:30:58.783Z,24.50
2019-05-01T00:33:28.529Z,22.00
2019-05-01T00:35:58.786Z,25.77
2019-05-01T00:38:28.506Z,22.50
2019-05-01T00:40:58.751Z,24.23
2019-05-01T00:43:29.190Z,20.05
2019-05-01T00:45:59.549Z,20.33
2019-05-01T00:48:29.249Z,19.80
2019-05-01T00:50:59.519Z,19.43
2019-05-01T00:53:29.226Z,19.57
2019-05-01T00:56:23.633Z,19.03
2019-05-01T00:59:09.275Z,20.40
2019-05-01T01:01:56.994Z,18.53
2019-05-01T01:04:27.591Z,21.73
2019-05-01T01:06:57.938Z,23.77
2019-05-01T01:09:28.438Z,23.45
2019-05-01T01:11:58.141Z,21.63
2019-05-01T01:14:28.366Z,20.17
2019-05-01T01:16:58.737Z,20.70
2019-05-01T01:19:28.440Z,23.47
2019-05-01T01:21:58.729Z,23.03
2019-05-01T01:24:29.213Z,20.60
2019-05-01T01:26:59.738Z,20.97
2019-05-01T01:29:30.207Z,21.87
2019-05-01T01:32:00.045Z,25.70
2019-05-01T01:34:30.294Z,20.53
2019-05-01T01:37:00.772Z,23.67
2019-05-01T01:39:31.848Z,24.37
2019-05-01T01:42:02.185Z,24.90
2019-05-01T01:44:57.744Z,24.53
2019-05-01T01:47:28.203Z,28.30
2019-05-01T01:49:59.443Z,26.07
2019-05-01T01:52:30.277Z,23.30
2019-05-01T01:54:59.992Z,29.97
2019-05-01T01:57:30.636Z,27.73
2019-05-01T02:00:00.470Z,27.43
2019-05-01T02:02:37.472Z,30.80
2019-05-01T02:05:28.896Z,30.47
2019-05-01T02:07:58.623Z,27.70
2019-05-01T02:10:41.834Z,27.13
2019-05-01T02:13:00.404Z,32.00
2019-05-01T02:15:30.644Z,28.20
2019-05-01T02:18:01.039Z,28.33
2019-05-01T02:20:31.560Z,31.90
2019-05-01T02:23:01.305Z,33.10
2019-05-01T02:25:33.374Z,27.57
2019-05-01T02:28:31.869Z,27.77
2019-05-01T02:31:28.419Z,31.37
2019-05-01T02:33:51.541Z,33.30
2019-05-01T02:36:24.049Z,34.30
2019-05-01T02:38:57.080Z,30.93
2019-05-01T02:41:31.674Z,38.03
2019-05-01T02:44:02.837Z,39.43
2019-05-01T02:46:36.431Z,32.90
2019-05-01T02:49:13.798Z,34.97
2019-05-01T02:51:45.369Z,37.73
2019-05-01T02:54:15.940Z,30.77
2019-05-01T02:56:55.890Z,33.73
2019-05-01T02:59:28.632Z,32.60
2019-05-01T03:02:00.259Z,36.23
2019-05-01T03:04:31.296Z,34.47
2019-05-01T03:07:01.848Z,36.50
2019-05-01T03:09:33.599Z,33.23
2019-05-01T03:12:04.986Z,34.20
2019-05-01T03:14:38.208Z,36.17
2019-05-01T03:17:29.910Z,37.87
2019-05-01T03:20:06.271Z,37.17
2019-05-01T03:22:43.077Z,36.60
2019-05-01T03:25:13.426Z,39.00
2019-05-01T03:27:44.388Z,37.77
2019-05-01T03:30:14.824Z,37.37
2019-05-01T03:32:45.356Z,40.13
2019-05-01T03:35:16.012Z,39.73
2019-05-01T03:37:46.359Z,34.40
2019-05-01T03:40:16.048Z,39.27
2019-05-01T03:42:46.416Z,40.57
2019-05-01T03:45:17.205Z,42.23
2019-05-01T03:47:47.534Z,37.50
2019-05-01T03:50:17.866Z,41.83
2019-05-01T03:52:48.509Z,41.13
2019-05-01T03:55:20.090Z,37.50
2019-05-01T03:57:49.778Z,35.77
2019-05-01T04:00:27.619Z,43.57
2019-05-01T04:03:20.650Z,38.20
2019-05-01T04:05:51.300Z,37.47
2019-05-01T04:08:21.862Z,37.50
2019-05-01T04:10:52.537Z,37.33
2019-05-01T04:13:22.870Z,37.93
2019-05-01T04:15:55.182Z,35.60
2019-05-01T04:18:26.673Z,39.80
2019-05-01T04:20:57.416Z,38.97
2019-05-01T04:23:27.907Z,39.18
2019-05-01T04:25:57.699Z,35.53
2019-05-01T04:28:52.128Z,38.00
2019-05-01T04:31:44.527Z,33.30
2019-05-01T04:34:21.801Z,35.83
2019-05-01T04:36:55.262Z,39.33
2019-05-01T04:39:25.787Z,35.17
2019-05-01T04:41:56.152Z,37.00
2019-05-01T04:44:26.618Z,32.50
2019-05-01T04:46:57.529Z,40.27
2019-05-01T04:49:28.079Z,41.00
2019-05-01T04:51:58.923Z,32.77
2019-05-01T04:54:29.368Z,37.05
2019-05-01T04:56:59.799Z,36.83
2019-05-01T04:59:30.131Z,34.43
2019-05-01T05:02:03.403Z,39.47
2019-05-01T05:04:34.942Z,39.67
2019-05-01T05:07:05.764Z,42.33
2019-05-01T05:09:47.042Z,42.83
2019-05-01T05:12:32.327Z,46.07
2019-05-01T05:15:27.107Z,47.80
2019-05-01T05:17:57.631Z,46.13
2019-05-01T05:20:28.038Z,47.07
2019-05-01T05:22:58.935Z,47.40
2019-05-01T05:25:29.890Z,58.07
2019-05-01T05:28:01.299Z,54.70
2019-05-01T05:30:34.182Z,57.33
2019-05-01T05:33:17.177Z,63.80
2019-05-01T05:35:40.063Z,59.47
2019-05-01T05:38:33.621Z,68.93
2019-05-01T05:41:04.478Z,75.20
2019-05-01T05:43:35.451Z,82.53
2019-05-01T05:46:06.124Z,78.60
2019-05-01T05:48:36.621Z,79.20
2019-05-01T05:51:15.785Z,72.10
2019-05-01T05:53:50.324Z,69.83
2019-05-01T05:56:26.751Z,56.87
2019-05-01T05:59:04.681Z,51.50
2019-05-01T06:02:05.758Z,47.10
2019-05-01T06:05:04.837Z,36.03
2019-05-01T06:07:40.860Z,29.80
2019-05-01T06:10:33.222Z,27.60
2019-05-01T06:13:24.816Z,23.63
2019-05-01T06:16:22.463Z,32.23
2019-05-01T06:18:57.895Z,20.47
2019-05-01T06:21:41.039Z,20.70
2019-05-01T06:24:17.735Z,23.67
2019-05-01T06:26:48.211Z,20.23
2019-05-01T06:29:19.334Z,17.20
2019-05-01T06:31:53.833Z,16.47
2019-05-01T06:34:23.891Z,18.93
2019-05-01T06:36:52.380Z,16.83
2019-05-01T06:39:21.959Z,15.03
2019-05-01T06:41:52.822Z,15.30
2019-05-01T06:44:44.213Z,17.77
2019-05-01T06:47:25.953Z,15.23
2019-05-01T06:50:32.362Z,14.37
2019-05-01T06:53:04.667Z,14.97
2019-05-01T06:55:36.617Z,16.60
2019-05-01T06:58:07.268Z,16.00
2019-05-01T07:00:43.081Z,15.87
2019-05-01T07:03:12.434Z,15.60
2019-05-01T07:05:44.572Z,14.53
2019-05-01T07:08:23.952Z,15.87
2019-05-01T07:10:46.363Z,14.33
2019-05-01T07:13:16.047Z,15.50
2019-05-01T07:15:46.311Z,16.97
2019-05-01T07:18:18.778Z,17.77
2019-05-01T07:20:53.275Z,16.93
2019-05-01T07:23:24.129Z,15.93
2019-05-01T07:25:54.717Z,17.13
2019-05-01T07:28:28.893Z,16.13
2019-05-01T07:31:09.683Z,16.53
2019-05-01T07:33:40.083Z,15.40
2019-05-01T07:36:15.432Z,18.70
2019-05-01T07:38:44.404Z,15.20
2019-05-01T07:41:16.156Z,17.37
2019-05-01T07:44:00.993Z,24.00
2019-05-01T07:46:40.099Z,18.47
2019-05-01T07:49:13.109Z,17.40
2019-05-01T07:51:50.783Z,19.73
2019-05-01T07:54:23.348Z,19.50
2019-05-01T07:56:54.154Z,19.03
2019-05-01T07:59:27.579Z,17.33
2019-05-01T08:02:06.056Z,20.57
2019-05-01T08:04:36.689Z,17.00
2019-05-01T08:07:07.195Z,15.53
2019-05-01T08:09:36.907Z,22.13
2019-05-01T08:12:07.147Z,17.40
2019-05-01T08:14:37.525Z,21.33
2019-05-01T08:17:08.153Z,17.87
2019-05-01T08:19:52.539Z,19.00
2019-05-01T08:22:32.021Z,19.57
2019-05-01T08:25:05.554Z,19.60
2019-05-01T08:27:57.948Z,21.10
2019-05-01T08:30:47.928Z,17.77
2019-05-01T08:33:34.999Z,17.60
2019-05-01T08:36:06.773Z,18.70
2019-05-01T08:38:37.970Z,18.73
2019-05-01T08:41:08.317Z,20.40
2019-05-01T08:43:38.672Z,18.47
2019-05-01T08:46:26.615Z,18.27
2019-05-01T08:49:12.597Z,21.10
2019-05-01T08:51:42.925Z,21.13
2019-05-01T08:54:12.640Z,19.10
2019-05-01T08:56:43.756Z,37.67
2019-05-01T08:59:19.291Z,24.03
2019-05-01T09:01:50.616Z,22.27
2019-05-01T09:04:18.847Z,22.27
2019-05-01T09:06:49.271Z,21.43
2019-05-01T09:09:19.638Z,19.17
2019-05-01T09:11:49.989Z,20.40
2019-05-01T09:14:20.322Z,20.83
2019-05-01T09:16:52.472Z,21.73
2019-05-01T09:19:22.633Z,20.97
2019-05-01T09:21:52.989Z,22.27
2019-05-01T09:24:27.847Z,21.97
2019-05-01T09:27:18.615Z,24.30
2019-05-01T09:29:51.569Z,20.83
2019-05-01T09:32:21.619Z,21.43
2019-05-01T09:34:51.325Z,21.20
2019-05-01T09:37:20.933Z,21.30
2019-05-01T09:39:50.559Z,21.57
2019-05-01T09:42:23.791Z,25.93
2019-05-01T09:44:52.117Z,23.50
2019-05-01T09:47:23.187Z,23.23
2019-05-01T09:49:53.950Z,24.57
2019-05-01T09:52:38.639Z,26.50
2019-05-01T09:55:23.077Z,22.20
2019-05-01T09:57:52.682Z,20.57
2019-05-01T10:00:28.700Z,26.63
2019-05-01T10:02:59.085Z,25.80
2019-05-01T10:05:29.440Z,22.13
2019-05-01T10:08:03.962Z,24.83
2019-05-01T10:10:31.940Z,26.93
2019-05-01T10:13:02.297Z,26.23
2019-05-01T10:15:32.643Z,27.03
2019-05-01T10:18:03.015Z,22.67
2019-05-01T10:20:32.727Z,25.60
2019-05-01T10:23:02.973Z,24.40
2019-05-01T10:25:35.062Z,23.00
2019-05-01T10:28:12.946Z,24.10
2019-05-01T10:30:57.319Z,24.33
2019-05-01T10:33:32.660Z,23.17
2019-05-01T10:36:18.796Z,24.20
2019-05-01T10:38:46.903Z,24.67
2019-05-01T10:41:17.513Z,26.13
2019-05-01T10:43:47.232Z,23.90
2019-05-01T10:46:17.476Z,23.83
2019-05-01T10:48:47.181Z,24.60
2019-05-01T10:51:17.438Z,25.00
2019-05-01T10:53:47.147Z,23.90
2019-05-01T10:56:17.415Z,25.17
2019-05-01T10:58:47.139Z,24.43
2019-05-01T11:01:39.405Z,24.57
2019-05-01T11:04:09.915Z,24.00
2019-05-01T11:06:40.297Z,21.33
2019-05-01T11:09:10.650Z,19.63
2019-05-01T11:11:42.403Z,19.67
2019-05-01T11:14:24.518Z,22.10
2019-05-01T11:16:54.972Z,19.03
2019-05-01T11:19:25.321Z,19.43
2019-05-01T11:21:55.675Z,21.77
2019-05-01T11:24:26.069Z,21.70
2019-05-01T11:26:55.770Z,23.50
2019-05-01T11:29:26.046Z,22.17
2019-05-01T11:32:02.287Z,24.57
2019-05-01T11:34:47.556Z,24.13
2019-05-01T11:37:32.215Z,23.13
2019-05-01T11:40:07.813Z,22.37
2019-05-01T11:42:37.505Z,22.27
2019-05-01T11:45:09.169Z,21.63
2019-05-01T11:47:38.854Z,24.00
2019-05-01T11:50:09.109Z,23.53
2019-05-01T11:52:39.431Z,22.33
2019-05-01T11:55:10.017Z,22.60
2019-05-01T11:57:39.694Z,19.90
2019-05-01T12:00:10.121Z,20.60
2019-05-01T12:02:40.396Z,23.10
2019-05-01T12:05:10.768Z,21.37
2019-05-01T12:07:41.144Z,23.83
2019-05-01T12:10:10.990Z,25.00
2019-05-01T12:12:41.245Z,23.07
2019-05-01T12:15:11.242Z,22.80
2019-05-01T12:17:46.606Z,24.20
2019-05-01T12:20:18.744Z,21.17
2019-05-01T12:22:51.379Z,22.93
2019-05-01T12:25:21.076Z,23.10
2019-05-01T12:27:51.445Z,23.03
2019-05-01T12:30:21.900Z,22.00
2019-05-01T12:32:52.261Z,24.97
2019-05-01T12:35:22.612Z,23.83
2019-05-01T12:37:55.487Z,23.03
2019-05-01T12:40:26.195Z,22.73
2019-05-01T12:42:56.562Z,24.33
2019-05-01T12:45:26.913Z,21.20
2019-05-01T12:47:59.561Z,21.23
2019-05-01T12:50:29.931Z,25.50
2019-05-01T12:53:25.452Z,26.23
2019-05-01T12:56:16.924Z,22.83
2019-05-01T12:58:48.667Z,24.27
2019-05-01T13:01:19.445Z,23.30
2019-05-01T13:03:49.688Z,23.23
2019-05-01T13:06:20.049Z,24.33
2019-05-01T13:08:49.766Z,25.13
2019-05-01T13:11:19.370Z,23.97
2019-05-01T13:13:49.351Z,22.13
2019-05-01T13:16:19.609Z,21.40
2019-05-01T13:18:49.316Z,22.07
2019-05-01T13:21:19.551Z,25.23
2019-05-01T13:23:49.986Z,19.90
2019-05-01T13:26:46.573Z,20.73
2019-05-01T13:29:27.705Z,20.57
2019-05-01T13:32:16.942Z,22.40
2019-05-01T13:34:47.411Z,23.37
2019-05-01T13:37:17.145Z,20.93
2019-05-01T13:39:46.745Z,22.37
2019-05-01T13:42:17.034Z,22.97
2019-05-01T13:44:47.352Z,21.23
2019-05-01T13:47:17.704Z,19.37
2019-05-01T13:49:48.029Z,19.33
2019-05-01T13:52:19.321Z,20.00
2019-05-01T13:54:50.104Z,21.20
2019-05-01T13:57:20.531Z,21.67
2019-05-01T13:59:50.855Z,20.23
2019-05-01T14:02:21.224Z,20.60
2019-05-01T14:04:51.570Z,20.67
2019-05-01T14:07:21.267Z,19.33
2019-05-01T14:09:51.515Z,21.97
2019-05-01T14:12:21.206Z,21.90
2019-05-01T14:14:51.435Z,18.57
2019-05-01T14:17:21.161Z,22.47
2019-05-01T14:20:01.408Z,20.23
2019-05-01T14:22:47.216Z,21.10
2019-05-01T14:25:17.593Z,21.83
2019-05-01T14:27:47.927Z,22.20
2019-05-01T14:30:18.386Z,20.33
2019-05-01T14:32:51.522Z,19.70
2019-05-01T14:35:20.102Z,20.60
2019-05-01T14:37:49.709Z,20.53
2019-05-01T14:40:19.392Z,17.03
2019-05-01T14:42:49.704Z,18.73
2019-05-01T14:45:20.285Z,22.50
2019-05-01T14:47:50.724Z,19.07
2019-05-01T14:50:20.413Z,20.87
2019-05-01T14:52:50.807Z,22.20
2019-05-01T14:55:21.196Z,19.10
2019-05-01T14:57:51.594Z,23.60
2019-05-01T15:00:22.329Z,23.43
2019-05-01T15:02:52.665Z,25.33
2019-05-01T15:05:23.009Z,21.93
2019-05-01T15:07:53.351Z,20.50
2019-05-01T15:10:23.773Z,23.63
2019-05-01T15:12:55.722Z,22.73
2019-05-01T15:15:41.289Z,25.57
2019-05-01T15:18:15.985Z,24.77
2019-05-01T15:20:46.563Z,24.20
2019-05-01T15:23:17.146Z,25.77
2019-05-01T15:25:48.759Z,25.63
2019-05-01T15:28:18.656Z,25.30
2019-05-01T15:30:48.255Z,21.67
2019-05-01T15:33:18.479Z,22.37
2019-05-01T15:35:48.676Z,23.97
2019-05-01T15:38:19.326Z,21.27
2019-05-01T15:41:10.359Z,25.27
2019-05-01T15:43:48.093Z,23.13
2019-05-01T15:46:19.122Z,24.53
2019-05-01T15:48:48.845Z,22.17
2019-05-01T15:51:18.583Z,22.60
2019-05-01T15:53:48.185Z,20.93
2019-05-01T15:56:18.421Z,21.17
2019-05-01T15:58:48.689Z,26.17
2019-05-01T16:01:18.692Z,25.65
2019-05-01T16:03:49.003Z,22.63
2019-05-01T16:06:19.669Z,22.43
2019-05-01T16:08:49.934Z,21.30
2019-05-01T16:11:38.638Z,21.43
2019-05-01T16:14:08.903Z,20.60
2019-05-01T16:16:38.635Z,24.00
2019-05-01T16:19:08.878Z,21.87
2019-05-01T16:21:39.266Z,20.77
2019-05-01T16:24:09.595Z,20.23
2019-05-01T16:26:39.979Z,20.97
2019-05-01T16:29:10.328Z,23.13
2019-05-01T16:31:40.725Z,21.00
2019-05-01T16:34:11.159Z,21.10
2019-05-01T16:36:41.546Z,24.80
2019-05-01T16:39:28.851Z,22.00
2019-05-01T16:41:59.119Z,23.43
2019-05-01T16:44:29.509Z,26.30
2019-05-01T16:46:59.874Z,25.90
2019-05-01T16:49:30.239Z,23.53
2019-05-01T16:52:00.648Z,21.53
2019-05-01T16:54:30.979Z,24.30
2019-05-01T16:57:01.361Z,22.60
2019-05-01T16:59:31.069Z,23.00
2019-05-01T17:02:14.604Z,21.90
2019-05-01T17:05:01.795Z,22.40
2019-05-01T17:07:39.455Z,22.53
2019-05-01T17:10:29.138Z,21.87
2019-05-01T17:12:59.109Z,21.77
2019-05-01T17:15:34.605Z,21.33
2019-05-01T17:18:05.278Z,20.90
2019-05-01T17:20:35.703Z,22.57
2019-05-01T17:23:06.141Z,25.20
2019-05-01T17:25:35.976Z,24.20
2019-05-01T17:28:08.270Z,21.93
2019-05-01T17:30:50.433Z,22.80
2019-05-01T17:33:22.141Z,21.95
2019-05-01T17:35:51.894Z,23.83
2019-05-01T17:38:22.191Z,21.90
2019-05-01T17:40:53.445Z,20.33
2019-05-01T17:43:23.195Z,20.50
2019-05-01T17:45:52.781Z,19.57
2019-05-01T17:48:22.404Z,20.87
2019-05-01T17:50:54.998Z,17.13
2019-05-01T17:53:23.911Z,20.50
2019-05-01T17:55:53.604Z,23.57
2019-05-01T17:58:23.873Z,19.63
2019-05-01T18:01:27.806Z,18.50
2019-05-01T18:04:11.367Z,20.10
2019-05-01T18:06:46.677Z,18.67
2019-05-01T18:09:15.587Z,18.60
2019-05-01T18:11:47.210Z,20.50
2019-05-01T18:14:17.323Z,20.70
2019-05-01T18:16:47.726Z,21.93
2019-05-01T18:19:17.427Z,18.77
2019-05-01T18:21:52.195Z,18.73
2019-05-01T18:24:40.713Z,22.10
2019-05-01T18:27:32.717Z,22.97
2019-05-01T18:30:07.001Z,20.37
2019-05-01T18:32:41.454Z,21.07
2019-05-01T18:35:14.085Z,23.57
2019-05-01T18:37:55.118Z,20.37
2019-05-01T18:40:38.291Z,24.63
2019-05-01T18:43:08.768Z,24.87
2019-05-01T18:45:51.547Z,22.87
2019-05-01T18:48:22.890Z,28.40
2019-05-01T18:50:54.913Z,29.80
2019-05-01T18:53:26.080Z,25.00
2019-05-01T18:55:56.523Z,25.97
2019-05-01T18:58:26.929Z,25.48
2019-05-01T19:00:56.681Z,27.83
2019-05-01T19:03:28.595Z,28.33
2019-05-01T19:05:59.037Z,24.43
2019-05-01T19:08:29.674Z,25.80
2019-05-01T19:11:11.705Z,27.67
2019-05-01T19:13:31.706Z,27.37
2019-05-01T19:16:03.458Z,27.67
2019-05-01T19:18:34.384Z,27.60
2019-05-01T19:21:05.034Z,26.33
2019-05-01T19:23:36.502Z,36.40
2019-05-01T19:26:07.472Z,27.37
2019-05-01T19:28:38.098Z,29.03
2019-05-01T19:31:07.791Z,27.10
2019-05-01T19:33:38.137Z,32.83
2019-05-01T19:36:10.205Z,32.63
2019-05-01T19:38:39.985Z,36.37
2019-05-01T19:41:13.928Z,32.17
2019-05-01T19:43:42.203Z,28.10
2019-05-01T19:46:12.787Z,31.30
2019-05-01T19:48:45.324Z,30.57
2019-05-01T19:51:14.415Z,32.05
2019-05-01T19:53:46.457Z,34.30
2019-05-01T19:56:16.589Z,33.73
2019-05-01T19:58:48.072Z,32.97
2019-05-01T20:01:18.638Z,36.83
2019-05-01T20:03:49.026Z,31.10
2019-05-01T20:06:20.388Z,30.87
2019-05-01T20:08:50.760Z,35.57
2019-05-01T20:11:21.175Z,31.70
2019-05-01T20:13:51.562Z,30.87
2019-05-01T20:16:22.757Z,40.00
2019-05-01T20:18:53.122Z,35.10
2019-05-01T20:21:22.813Z,30.27
2019-05-01T20:23:53.180Z,35.93
2019-05-01T20:26:26.853Z,32.77
2019-05-01T20:28:57.467Z,32.57
2019-05-01T20:31:28.282Z,33.77
2019-05-01T20:33:59.555Z,29.03
2019-05-01T20:36:30.061Z,32.53
2019-05-01T20:39:00.454Z,27.63
2019-05-01T20:41:30.135Z,32.10
2019-05-01T20:44:00.399Z,25.43
2019-05-01T20:46:30.798Z,27.97
2019-05-01T20:49:06.296Z,22.20
2019-05-01T20:51:32.480Z,27.37
2019-05-01T20:54:02.764Z,24.07
2019-05-01T20:56:37.555Z,24.97
2019-05-01T20:59:07.969Z,22.27
2019-05-01T21:01:38.349Z,22.63
2019-05-01T21:04:27.057Z,27.60
2019-05-01T21:07:15.608Z,24.70
2019-05-01T21:09:47.771Z,20.43
2019-05-01T21:12:20.040Z,18.40
2019-05-01T21:14:51.085Z,20.47
2019-05-01T21:17:21.665Z,19.03
2019-05-01T21:19:52.066Z,18.80
2019-05-01T21:22:23.439Z,16.27
2019-05-01T21:24:53.873Z,19.20
2019-05-01T21:27:24.403Z,24.17
2019-05-01T21:29:54.882Z,17.27
2019-05-01T21:32:27.455Z,22.90
2019-05-01T21:34:57.253Z,23.33
2019-05-01T21:37:27.591Z,22.47
2019-05-01T21:39:57.961Z,16.70
2019-05-01T21:42:28.332Z,19.07
2019-05-01T21:44:58.697Z,17.37
2019-05-01T21:47:29.046Z,19.47
2019-05-01T21:49:59.446Z,17.07
2019-05-01T21:52:29.807Z,17.00
2019-05-01T21:55:00.274Z,17.77
2019-05-01T21:57:33.185Z,13.40
2019-05-01T22:00:02.601Z,17.77
2019-05-01T22:02:32.934Z,17.50
2019-05-01T22:05:04.000Z,14.67
2019-05-01T22:07:34.637Z,17.77
2019-05-01T22:10:05.507Z,15.67
2019-05-01T22:12:35.297Z,15.87
2019-05-01T22:15:12.782Z,14.33
2019-05-01T22:18:00.308Z,13.57
2019-05-01T22:20:41.155Z,14.50
2019-05-01T22:23:17.108Z,18.43
2019-05-01T22:25:48.361Z,16.77
2019-05-01T22:28:30.648Z,16.13
2019-05-01T22:31:25.504Z,12.20
2019-05-01T22:34:02.844Z,17.47
2019-05-01T22:36:33.116Z,14.17
2019-05-01T22:39:06.121Z,13.07
2019-05-01T22:41:34.706Z,10.93
2019-05-01T22:44:05.222Z,11.47
2019-05-01T22:46:39.060Z,11.10
2019-05-01T22:49:06.152Z,10.70
2019-05-01T22:51:36.526Z,11.60
2019-05-01T22:54:06.241Z,11.97
2019-05-01T22:56:36.514Z,9.03
2019-05-01T22:59:06.187Z,12.67
2019-05-01T23:01:36.673Z,10.00
2019-05-01T23:04:11.969Z,8.20
2019-05-01T23:06:41.723Z,12.00
2019-05-01T23:09:12.968Z,11.63
2019-05-01T23:11:46.274Z,8.47
2019-05-01T23:14:16.888Z,9.17
2019-05-01T23:16:54.605Z,9.80
2019-05-01T23:19:27.829Z,10.18
2019-05-01T23:21:58.348Z,12.37
2019-05-01T23:24:28.933Z,7.50
2019-05-01T23:26:58.608Z,8.00
2019-05-01T23:29:28.873Z,9.93
2019-05-01T23:31:59.537Z,8.03
2019-05-01T23:34:29.907Z,8.83
2019-05-01T23:37:00.231Z,9.03
2019-05-01T23:39:39.759Z,13.30
2019-05-01T23:42:02.615Z,11.03
2019-05-01T23:44:32.987Z,9.30
2019-05-01T23:47:03.411Z,8.83
2019-05-01T23:49:33.724Z,9.87
2019-05-01T23:52:05.220Z,10.90
2019-05-01T23:54:34.989Z,9.23
2019-05-01T23:57:05.272Z,8.50
2019-05-01T23:59:34.999Z,9.18
